Greenwood, Wisconsin
Current Conditions -  °F | °C
As of 4:54 AM on Friday 24 Oct 2014 (Local Time) from KMFI Reporting Station
Moderate Fog Moderate Fog  
Wind Chill: 44°   Ceiling: 200
Heat Index: 46°   Visibility: 0.25mi
Dew Point: 45°   Wind: 5mph
Humidity: 96%   Direction: 240°WSW
Pressure: 30.02"   Gusts: NA
Location:  44.77°N, 90.6°W
Report Text: KMFI 240954Z AUTO 24004KT 1/4SM FG VV002 08/07 A3002 RMK AO2 SLP173 T00780072
Loading
Personal Weather Stations






























Interactive Weather Map
Tropical Storm Tracking
New forecast layout! Learn more

10-Day Weather Forecast

Advertisements
Track Severe Weather on mobile